Time;durP1;ratioP1;P1;durP2;ratioP2;P2;SDS_P1;SDS_P2;PMS_P1;PMS_P2;Temp;Humidity;BMP_temperature;BMP_pressure;BME280_temperature;BME280_humidity;BME280_pressure;Samples;Min_cycle;Max_cycle;Signal;HPM_P1;HPM_P2
2024/03/29 05:02:05;;;;;;;0.90;0.80;;;7.10;97.30;;;;;;5328161;23;20483;-87
2024/03/29 05:04:31;;;;;;;1.00;0.90;;;7.20;97.30;;;;;;5007782;28;20444;-87
2024/03/29 05:06:58;;;;;;;0.80;0.70;;;7.20;97.30;;;;;;4987613;28;20201;-88
2024/03/29 05:09:25;;;;;;;0.90;0.80;;;7.20;97.30;;;;;;4984703;28;20287;-87
2024/03/29 05:11:50;;;;;;;1.10;1.00;;;7.30;97.30;;;;;;4978608;28;20447;-85
2024/03/29 05:14:18;;;;;;;0.93;0.83;;;7.30;97.30;;;;;;4994212;28;20416;-88
2024/03/29 05:16:44;;;;;;;0.90;0.80;;;7.40;97.30;;;;;;4993414;28;20555;-88
2024/03/29 05:19:10;;;;;;;11.50;1.30;;;7.40;97.30;;;;;;4985080;28;20431;-88
2024/03/29 05:21:35;;;;;;;1.00;0.90;;;7.40;97.30;;;;;;4983162;28;20447;-88
2024/03/29 05:24:01;;;;;;;1.00;0.90;;;7.50;97.30;;;;;;4974042;28;20659;-88
2024/03/29 05:26:26;;;;;;;1.00;0.90;;;7.50;97.30;;;;;;4983119;28;20182;-88
2024/03/29 05:28:57;;;;;;;1.00;0.90;;;7.50;97.30;;;;;;4993213;28;20644;-89
2024/03/29 05:31:26;;;;;;;0.90;0.80;;;7.60;97.20;;;;;;4976935;28;20256;-89
2024/03/29 05:33:55;;;;;;;1.23;1.17;;;7.70;97.20;;;;;;4991509;28;20769;-89
2024/03/29 05:36:20;;;;;;;3.90;1.17;;;7.70;97.00;;;;;;4985441;28;20783;-86
2024/03/29 05:38:46;;;;;;;1.00;0.90;;;7.80;96.80;;;;;;4989899;28;20702;-89
2024/03/29 05:41:11;;;;;;;0.90;0.80;;;7.80;96.90;;;;;;4985942;28;20205;-88
2024/03/29 05:43:40;;;;;;;4.93;1.20;;;7.90;96.80;;;;;;4983990;28;20324;-88
2024/03/29 05:46:05;;;;;;;1.07;0.97;;;7.90;97.10;;;;;;4981529;28;20185;-86
2024/03/29 05:48:31;;;;;;;1.00;0.90;;;7.90;96.60;;;;;;4986830;28;20478;-88
2024/03/29 05:50:56;;;;;;;1.00;0.90;;;7.90;96.30;;;;;;4994997;28;20566;-88
2024/03/29 05:53:22;;;;;;;1.37;1.33;;;8.00;96.20;;;;;;4994897;28;20169;-89
2024/03/29 05:55:47;;;;;;;0.90;0.80;;;8.00;96.30;;;;;;4983675;28;20647;-88
2024/03/29 05:58:17;;;;;;;0.90;0.80;;;8.10;95.90;;;;;;4975310;28;20181;-88
2024/03/29 06:00:43;;;;;;;0.90;0.80;;;8.10;96.00;;;;;;4975114;28;20198;-88
2024/03/29 06:03:09;;;;;;;1.00;0.90;;;8.10;95.90;;;;;;4975617;28;20432;-88
2024/03/29 06:05:34;;;;;;;0.90;0.80;;;8.20;96.20;;;;;;4983730;28;20417;-88
2024/03/29 06:08:00;;;;;;;0.80;0.70;;;8.20;96.10;;;;;;4975293;28;20178;-88
2024/03/29 06:10:25;;;;;;;1.00;0.90;;;8.20;96.40;;;;;;4983482;28;20256;-87
2024/03/29 06:12:51;;;;;;;0.80;0.70;;;8.20;96.20;;;;;;4992860;28;20248;-88
2024/03/29 06:18:01;;;;;;;0.97;0.87;;;8.30;96.00;;;;;;4992127;28;20196;-88
2024/03/29 06:20:26;;;;;;;1.10;1.00;;;8.30;96.10;;;;;;4974281;28;20919;-89
2024/03/29 06:22:52;;;;;;;1.27;0.90;;;8.30;96.30;;;;;;4983441;28;20190;-88
2024/03/29 06:25:17;;;;;;;1.00;0.90;;;8.50;94.70;;;;;;4975460;28;20182;-88
2024/03/29 06:27:47;;;;;;;0.90;0.80;;;8.70;94.10;;;;;;4977486;28;20243;-88
2024/03/29 06:30:15;;;;;;;0.90;0.80;;;8.80;93.60;;;;;;4986260;28;20686;-87
2024/03/29 06:32:41;;;;;;;1.20;1.10;;;8.90;93.90;;;;;;4984033;28;21001;-87
2024/03/29 06:35:06;;;;;;;0.90;0.80;;;8.90;93.60;;;;;;4988987;28;20511;-87
2024/03/29 06:37:34;;;;;;;1.77;1.10;;;9.00;93.60;;;;;;4992957;28;20227;-87
2024/03/29 06:40:00;;;;;;;0.90;0.80;;;9.00;93.90;;;;;;4974936;28;20243;-87
2024/03/29 06:42:25;;;;;;;0.93;0.87;;;9.00;94.40;;;;;;4990785;28;20996;-87
2024/03/29 06:44:52;;;;;;;0.90;0.80;;;9.00;94.10;;;;;;4990890;28;20276;-87
2024/03/29 06:47:17;;;;;;;1.10;1.00;;;9.10;94.70;;;;;;4974582;28;20586;-88
2024/03/29 06:49:46;;;;;;;0.90;0.80;;;9.10;94.80;;;;;;4988098;28;20469;-88
2024/03/29 06:52:11;;;;;;;1.13;1.03;;;9.10;94.40;;;;;;4977285;23;20895;-66
2024/03/29 06:54:37;;;;;;;0.90;0.90;;;9.10;94.90;;;;;;4983011;28;20418;-66
2024/03/29 06:57:03;;;;;;;1.00;0.90;;;9.20;94.60;;;;;;4984199;28;20182;-66
2024/03/29 06:59:28;;;;;;;0.90;0.80;;;9.20;94.00;;;;;;4988066;28;20186;-66
2024/03/29 07:01:54;;;;;;;0.80;0.70;;;9.20;94.70;;;;;;4961179;28;20333;-66
2024/03/29 07:04:21;;;;;;;0.90;0.80;;;9.30;94.30;;;;;;4976213;28;20529;-66
2024/03/29 07:06:47;;;;;;;0.77;0.73;;;9.30;94.20;;;;;;4978683;28;20429;-66
2024/03/29 07:09:14;;;;;;;0.93;0.83;;;9.40;93.70;;;;;;4953685;28;20776;-66
2024/03/29 07:11:40;;;;;;;0.70;0.70;;;9.40;93.60;;;;;;4985903;28;20444;-66
2024/03/29 07:14:06;;;;;;;1.87;0.90;;;9.50;93.20;;;;;;4948854;28;20437;-66
2024/03/29 07:16:31;;;;;;;4.60;1.57;;;9.60;93.40;;;;;;4970751;28;20414;-68
2024/03/29 07:18:57;;;;;;;1.30;1.20;;;9.60;93.10;;;;;;4938352;28;20430;-65
2024/03/29 07:21:24;;;;;;;0.77;0.70;;;9.60;92.60;;;;;;4947947;28;20568;-66
2024/03/29 07:23:49;;;;;;;0.97;0.87;;;9.70;92.50;;;;;;4947499;28;20654;-65
2024/03/29 07:26:15;;;;;;;1.03;0.93;;;9.70;92.60;;;;;;4977257;28;20432;-66
2024/03/29 07:28:40;;;;;;;0.90;0.80;;;9.70;92.70;;;;;;4980964;28;20209;-66
2024/03/29 07:31:10;;;;;;;1.43;1.27;;;9.80;92.30;;;;;;4984701;28;20197;-66
2024/03/29 07:33:36;;;;;;;1.00;0.90;;;9.80;92.40;;;;;;4971306;28;20173;-66
2024/03/29 07:36:02;;;;;;;1.70;1.60;;;9.80;91.80;;;;;;4958003;28;20762;-67
2024/03/29 07:38:29;;;;;;;1.30;1.20;;;9.90;92.10;;;;;;4963837;28;20686;-66
2024/03/29 07:40:55;;;;;;;1.13;1.10;;;9.90;92.50;;;;;;4949438;28;20469;-67
2024/03/29 07:43:21;;;;;;;1.00;0.90;;;10.00;92.30;;;;;;4982493;28;20460;-66
2024/03/29 07:45:47;;;;;;;0.90;0.80;;;10.00;91.90;;;;;;4979735;28;20186;-66
2024/03/29 07:48:15;;;;;;;2.60;1.63;;;10.00;91.70;;;;;;4977017;28;20431;-67
2024/03/29 07:50:41;;;;;;;1.10;1.00;;;10.00;91.70;;;;;;4981844;28;20520;-66
2024/03/29 07:53:07;;;;;;;1.50;1.33;;;10.10;91.70;;;;;;4967845;28;20477;-66
2024/03/29 07:55:34;;;;;;;0.90;0.80;;;10.10;92.00;;;;;;4959321;28;20422;-66
2024/03/29 07:57:59;;;;;;;0.70;0.70;;;10.20;91.90;;;;;;4964681;28;20432;-66
2024/03/29 08:00:26;;;;;;;1.00;0.90;;;10.20;91.60;;;;;;4974657;28;20442;-66
2024/03/29 08:02:53;;;;;;;0.90;0.80;;;10.30;92.00;;;;;;4955919;28;20733;-65
2024/03/29 08:05:21;;;;;;;0.80;0.70;;;10.30;91.70;;;;;;4988509;28;20455;-66
2024/03/29 08:07:47;;;;;;;6.63;1.37;;;10.30;92.60;;;;;;4953428;28;20461;-65
2024/03/29 08:10:13;;;;;;;1.00;0.90;;;10.30;92.60;;;;;;4964112;28;20498;-65
2024/03/29 08:12:38;;;;;;;0.80;0.70;;;10.30;92.60;;;;;;4959216;28;20213;-66
2024/03/29 08:15:04;;;;;;;3.57;1.23;;;10.30;92.60;;;;;;4957534;28;20647;-65
2024/03/29 08:17:31;;;;;;;0.80;0.70;;;10.20;93.50;;;;;;4979239;28;20269;-65
2024/03/29 08:19:57;;;;;;;1.00;0.90;;;10.20;94.00;;;;;;4970070;28;20513;-65
2024/03/29 08:22:22;;;;;;;0.90;0.80;;;10.10;96.10;;;;;;4977813;28;20528;-65
2024/03/29 08:24:48;;;;;;;1.13;0.90;;;10.00;96.80;;;;;;4977860;28;20190;-65
2024/03/29 08:27:13;;;;;;;0.90;0.80;;;9.90;97.30;;;;;;4973370;28;20684;-65
2024/03/29 08:29:43;;;;;;;1.10;1.00;;;9.80;97.30;;;;;;4962941;28;20749;-65
2024/03/29 08:32:10;;;;;;;0.90;0.80;;;9.80;97.30;;;;;;4975542;28;20194;-66
2024/03/29 08:34:36;;;;;;;1.00;0.90;;;9.80;97.30;;;;;;4980701;28;20940;-65
2024/03/29 08:37:03;;;;;;;1.13;1.03;;;9.70;97.30;;;;;;4969244;28;20418;-65
2024/03/29 08:39:30;;;;;;;1.43;1.33;;;9.70;97.30;;;;;;4973759;28;20428;-65
2024/03/29 08:41:55;;;;;;;1.00;0.90;;;9.60;97.30;;;;;;4955677;28;20455;-65
2024/03/29 08:44:21;;;;;;;1.40;1.30;;;9.60;97.30;;;;;;4989468;28;20421;-64
2024/03/29 08:46:46;;;;;;;0.90;0.80;;;9.60;97.30;;;;;;4981167;28;20571;-64
2024/03/29 08:49:12;;;;;;;2.70;0.90;;;9.60;97.30;;;;;;4958493;28;20206;-64
2024/03/29 08:51:37;;;;;;;0.90;0.80;;;9.60;97.30;;;;;;4977565;28;20226;-64
2024/03/29 08:54:05;;;;;;;0.90;0.80;;;9.60;97.30;;;;;;4952626;28;20188;-64
2024/03/29 08:56:31;;;;;;;2.40;2.20;;;9.50;97.30;;;;;;4954917;28;20179;-64
2024/03/29 08:59:00;;;;;;;0.90;0.80;;;9.50;97.30;;;;;;4967930;28;20421;-64
2024/03/29 09:01:26;;;;;;;0.90;0.80;;;9.50;97.30;;;;;;4984517;28;20445;-64
2024/03/29 09:03:53;;;;;;;1.00;0.90;;;9.50;97.30;;;;;;4980889;28;20831;-64
2024/03/29 09:06:18;;;;;;;1.17;1.07;;;9.60;97.30;;;;;;4975070;28;20484;-64
2024/03/29 09:08:44;;;;;;;1.00;0.90;;;9.60;97.30;;;;;;4971134;28;20488;-64
2024/03/29 09:11:11;;;;;;;6.83;2.43;;;9.60;97.30;;;;;;4950836;28;20655;-64
2024/03/29 09:13:36;;;;;;;1.00;0.90;;;9.50;97.30;;;;;;4969564;28;20179;-64
2024/03/29 09:16:02;;;;;;;1.10;1.00;;;9.60;97.30;;;;;;4951116;28;20417;-64
2024/03/29 09:18:28;;;;;;;1.10;1.00;;;9.60;97.30;;;;;;4952178;28;20181;-64
2024/03/29 09:21:00;;;;;;;1.20;1.10;;;9.60;97.30;;;;;;4948692;28;20297;-64
2024/03/29 09:23:29;;;;;;;0.90;0.80;;;9.60;97.30;;;;;;4965047;28;20182;-64
2024/03/29 09:25:58;;;;;;;1.00;0.90;;;9.60;97.30;;;;;;4949872;28;20423;-65
2024/03/29 09:28:24;;;;;;;0.80;0.70;;;9.60;97.30;;;;;;4969591;28;20923;-65
2024/03/29 09:30:50;;;;;;;3.03;1.47;;;9.70;97.30;;;;;;4950056;28;20443;-65
2024/03/29 09:33:15;;;;;;;1.10;1.00;;;9.70;97.30;;;;;;4951774;28;20429;-65
2024/03/29 09:35:41;;;;;;;0.80;0.70;;;9.80;97.30;;;;;;4950552;28;20659;-65
2024/03/29 09:38:06;;;;;;;1.00;0.93;;;9.90;97.30;;;;;;4968027;28;20659;-65
2024/03/29 09:40:33;;;;;;;1.10;1.00;;;9.90;97.30;;;;;;4970756;28;20217;-65
2024/03/29 09:43:03;;;;;;;0.90;0.80;;;9.90;97.30;;;;;;4947819;28;20186;-65
2024/03/29 09:45:35;;;;;;;0.90;0.80;;;10.00;97.30;;;;;;4949285;28;20434;-65
2024/03/29 09:48:05;;;;;;;1.17;1.07;;;10.00;97.30;;;;;;4967155;28;20512;-65
2024/03/29 09:50:31;;;;;;;4.00;1.13;;;10.10;97.30;;;;;;4964547;28;20466;-65
2024/03/29 09:52:58;;;;;;;1.23;1.13;;;10.10;97.30;;;;;;4964751;28;20496;-65
2024/03/29 09:55:24;;;;;;;2.13;1.20;;;10.10;97.30;;;;;;4969062;28;20422;-65
2024/03/29 09:57:50;;;;;;;1.40;1.30;;;10.20;97.30;;;;;;4969574;28;20423;-65
2024/03/29 10:00:17;;;;;;;0.90;0.80;;;10.20;97.30;;;;;;4966957;28;20429;-65
2024/03/29 10:02:44;;;;;;;1.00;0.90;;;10.20;97.30;;;;;;4963386;28;20504;-65
2024/03/29 10:05:12;;;;;;;1.07;0.97;;;10.20;97.30;;;;;;4949630;28;20790;-65
2024/03/29 10:07:40;;;;;;;0.90;0.80;;;10.20;97.30;;;;;;4946324;28;20429;-65
2024/03/29 10:10:05;;;;;;;1.10;1.00;;;10.30;97.30;;;;;;4943747;28;20478;-65
2024/03/29 10:12:31;;;;;;;10.73;2.03;;;10.30;97.30;;;;;;4959833;28;20441;-65
2024/03/29 10:15:08;;;;;;;0.90;0.80;;;10.30;97.30;;;;;;4966305;28;20194;-65
2024/03/29 10:17:34;;;;;;;1.00;0.90;;;10.40;97.30;;;;;;4958056;28;20672;-65
2024/03/29 10:20:04;;;;;;;2.90;1.97;;;10.50;97.30;;;;;;4949012;28;20564;-65
2024/03/29 10:22:30;;;;;;;1.07;0.97;;;10.60;97.30;;;;;;4964598;28;20449;-65
2024/03/29 10:24:59;;;;;;;1.30;1.20;;;10.70;97.30;;;;;;4941071;28;20501;-65
2024/03/29 10:27:26;;;;;;;1.60;1.50;;;10.70;97.30;;;;;;4957517;28;20422;-65
2024/03/29 10:29:53;;;;;;;1.00;0.90;;;10.80;97.30;;;;;;4943209;28;20477;-65
2024/03/29 10:32:18;;;;;;;1.63;1.53;;;10.90;97.30;;;;;;4941997;28;20435;-65
2024/03/29 10:34:44;;;;;;;0.90;0.80;;;10.90;97.30;;;;;;4942099;28;20449;-65
2024/03/29 10:37:10;;;;;;;0.90;0.80;;;11.00;97.30;;;;;;4960421;28;20227;-65
2024/03/29 10:39:36;;;;;;;1.47;1.37;;;11.00;97.30;;;;;;4938943;28;20275;-65
2024/03/29 10:42:04;;;;;;;1.00;0.90;;;11.10;97.30;;;;;;4937371;28;20517;-64
2024/03/29 10:44:30;;;;;;;1.33;1.00;;;11.20;97.30;;;;;;4953189;28;20187;-65
2024/03/29 10:46:58;;;;;;;1.17;1.07;;;11.20;97.30;;;;;;4939422;28;20465;-65
2024/03/29 10:49:24;;;;;;;3.03;1.70;;;11.30;97.30;;;;;;4961665;28;20458;-65
2024/03/29 10:51:51;;;;;;;2.20;1.50;;;11.30;97.20;;;;;;4952647;28;20558;-65
2024/03/29 10:54:16;;;;;;;1.47;1.20;;;11.40;96.70;;;;;;4969825;28;20425;-65
2024/03/29 10:56:46;;;;;;;1.00;0.90;;;11.40;96.30;;;;;;4972064;28;20436;-65
2024/03/29 10:59:21;;;;;;;1.33;1.07;;;11.50;96.10;;;;;;4973723;28;20190;-65
2024/03/29 11:01:52;;;;;;;1.57;1.47;;;11.60;95.60;;;;;;4990754;28;20431;-65
2024/03/29 11:04:23;;;;;;;4.80;1.33;;;11.80;95.50;;;;;;4986404;28;20448;-65
2024/03/29 11:06:52;;;;;;;1.40;1.30;;;11.90;95.80;;;;;;4954073;28;20426;-65
2024/03/29 11:09:20;;;;;;;1.03;0.93;;;12.10;95.30;;;;;;4976258;28;20457;-65
2024/03/29 11:11:50;;;;;;;4.20;2.17;;;12.20;94.70;;;;;;4965380;28;20445;-65
2024/03/29 11:14:36;;;;;;;;;;;;;;;;;;;;;
2024/03/29 11:17:28;;;;;;;0.90;0.80;;;12.40;93.30;;;;;;5002836;28;20458;-83
2024/03/29 11:20:08;;;;;;;2.40;1.03;;;12.60;92.20;;;;;;4988404;28;20424;-83
2024/03/29 11:22:37;;;;;;;0.90;0.80;;;12.60;91.70;;;;;;4984215;28;20433;-83
2024/03/29 11:25:04;;;;;;;0.90;0.80;;;12.60;90.40;;;;;;4991425;23;20524;-62
2024/03/29 11:27:30;;;;;;;1.00;0.90;;;12.70;89.80;;;;;;4993085;28;20431;-62
2024/03/29 11:29:55;;;;;;;0.70;0.70;;;12.70;89.40;;;;;;4998145;28;20456;-62
2024/03/29 11:32:38;;;;;;;0.90;0.80;;;12.80;90.10;;;;;;4990213;28;20206;-62
2024/03/29 11:35:05;;;;;;;1.30;1.20;;;12.90;91.10;;;;;;4969278;28;20181;-62
2024/03/29 11:37:31;;;;;;;0.90;0.80;;;12.90;88.80;;;;;;4957274;28;20518;-63
2024/03/29 11:40:00;;;;;;;0.90;0.80;;;13.00;89.70;;;;;;4947474;28;20418;-62
2024/03/29 11:42:45;;;;;;;0.90;0.80;;;13.00;88.30;;;;;;4942168;28;20514;-63
2024/03/29 11:45:11;;;;;;;0.90;0.80;;;13.10;89.10;;;;;;4963719;28;20786;-65
2024/03/29 11:47:39;;;;;;;0.97;0.87;;;13.20;89.00;;;;;;4963359;28;20408;-63
2024/03/29 11:50:07;;;;;;;1.13;1.10;;;13.30;88.70;;;;;;4945687;28;20469;-62
2024/03/29 11:52:33;;;;;;;0.90;0.80;;;13.30;88.60;;;;;;4964475;28;20733;-64
2024/03/29 11:54:59;;;;;;;1.00;0.90;;;13.40;88.90;;;;;;4989589;28;20472;-64
2024/03/29 11:57:24;;;;;;;1.00;0.90;;;13.40;88.80;;;;;;4974019;28;20175;-62
2024/03/29 11:59:50;;;;;;;1.37;1.33;;;13.50;90.40;;;;;;4971986;28;20359;-62
2024/03/29 12:02:16;;;;;;;0.90;0.80;;;13.50;89.10;;;;;;4972269;28;20197;-62
2024/03/29 12:04:42;;;;;;;1.10;1.00;;;13.60;88.40;;;;;;4971453;28;20181;-62
2024/03/29 12:07:08;;;;;;;7.33;1.10;;;13.60;88.50;;;;;;4978232;28;20429;-63
2024/03/29 12:09:33;;;;;;;1.20;1.10;;;13.70;87.70;;;;;;4972040;28;20209;-62
2024/03/29 12:12:05;;;;;;;0.90;0.80;;;13.70;87.50;;;;;;4989060;28;20596;-63
2024/03/29 12:14:35;;;;;;;1.10;1.00;;;13.80;88.20;;;;;;4989562;28;20170;-63
2024/03/29 12:17:01;;;;;;;0.77;0.73;;;13.90;88.40;;;;;;4984914;28;20416;-62
2024/03/29 12:19:27;;;;;;;0.90;0.80;;;14.00;88.90;;;;;;4964754;28;20425;-63
2024/03/29 12:21:53;;;;;;;0.90;0.80;;;14.10;87.80;;;;;;4989128;28;20495;-63
2024/03/29 12:24:20;;;;;;;0.90;0.80;;;14.30;88.10;;;;;;4971097;28;20469;-65
2024/03/29 12:26:48;;;;;;;0.90;0.80;;;14.50;87.30;;;;;;4979115;28;20520;-61
2024/03/29 12:29:14;;;;;;;1.10;1.00;;;14.60;87.40;;;;;;4985633;28;20518;-67
2024/03/29 12:31:39;;;;;;;0.90;0.80;;;14.80;88.60;;;;;;4947581;28;20530;-63
2024/03/29 12:34:06;;;;;;;0.90;0.80;;;14.80;88.00;;;;;;4966546;28;20680;-67
2024/03/29 12:36:33;;;;;;;1.07;0.97;;;14.60;88.50;;;;;;4969061;28;20178;-65
2024/03/29 12:39:02;;;;;;;2.50;1.63;;;14.60;89.30;;;;;;4978671;28;20421;-67
2024/03/29 12:41:29;;;;;;;2.00;1.80;;;14.60;90.30;;;;;;4971369;28;20502;-65
2024/03/29 12:43:55;;;;;;;1.63;1.20;;;14.80;89.90;;;;;;4988721;28;20428;-63
2024/03/29 12:46:20;;;;;;;0.77;0.73;;;15.00;90.10;;;;;;4971353;28;20425;-62
2024/03/29 12:48:46;;;;;;;1.00;0.90;;;15.30;89.80;;;;;;4971232;28;20236;-64
2024/03/29 12:51:12;;;;;;;1.33;1.33;;;15.60;89.60;;;;;;4970934;28;20205;-65
2024/03/29 12:53:39;;;;;;;0.90;0.80;;;15.80;89.00;;;;;;4969333;28;20185;-64
2024/03/29 12:56:05;;;;;;;1.47;1.00;;;15.80;88.80;;;;;;4962813;28;20425;-64
2024/03/29 12:58:30;;;;;;;1.00;0.90;;;15.60;89.10;;;;;;4971214;28;20420;-64
2024/03/29 13:00:56;;;;;;;1.10;1.00;;;15.20;90.10;;;;;;4987967;28;20452;-65
2024/03/29 13:03:21;;;;;;;0.90;0.80;;;14.90;91.20;;;;;;4971018;28;20178;-65
2024/03/29 13:05:47;;;;;;;0.77;0.73;;;14.90;91.90;;;;;;4970635;28;20185;-65
2024/03/29 13:08:15;;;;;;;1.00;0.90;;;15.10;92.40;;;;;;4988206;28;20216;-66
2024/03/29 13:10:42;;;;;;;1.00;0.90;;;15.30;91.40;;;;;;4970754;28;20685;-66
2024/03/29 13:13:08;;;;;;;1.00;0.90;;;15.60;91.50;;;;;;4982866;28;20465;-66
2024/03/29 13:15:35;;;;;;;1.37;0.90;;;15.60;91.00;;;;;;4961069;28;20781;-67
2024/03/29 13:18:02;;;;;;;0.90;0.80;;;15.60;91.40;;;;;;4959890;28;20466;-66
2024/03/29 13:20:27;;;;;;;1.17;1.07;;;15.50;92.20;;;;;;4948135;28;21085;-64
2024/03/29 13:22:55;;;;;;;0.90;0.80;;;16.00;91.20;;;;;;4966054;28;20506;-65
2024/03/29 13:25:21;;;;;;;0.90;0.80;;;16.40;89.80;;;;;;4957937;28;20590;-64
2024/03/29 13:27:49;;;;;;;0.90;0.80;;;16.20;90.00;;;;;;4944604;28;20425;-65
2024/03/29 13:30:15;;;;;;;0.90;0.80;;;15.90;91.30;;;;;;4964979;28;20985;-65
2024/03/29 13:32:42;;;;;;;1.10;1.00;;;15.70;92.70;;;;;;4946059;28;20425;-65
2024/03/29 13:35:11;;;;;;;0.70;0.70;;;15.70;92.70;;;;;;4960050;28;20509;-63
2024/03/29 13:37:48;;;;;;;1.47;1.37;;;15.90;91.90;;;;;;4938876;28;20572;-65
2024/03/29 13:40:14;;;;;;;0.90;0.80;;;15.80;92.70;;;;;;4968244;28;20899;-66
2024/03/29 13:42:41;;;;;;;0.90;0.80;;;15.60;93.20;;;;;;4951710;28;20436;-65
2024/03/29 13:45:08;;;;;;;0.83;0.77;;;15.50;93.40;;;;;;4960964;28;20427;-66
2024/03/29 13:47:34;;;;;;;3.47;1.03;;;15.50;93.70;;;;;;4944103;28;20438;-65
2024/03/29 13:50:00;;;;;;;0.90;0.80;;;15.60;93.80;;;;;;4961022;28;20994;-65
2024/03/29 13:52:27;;;;;;;0.80;0.70;;;15.70;93.30;;;;;;4961113;28;20437;-66
2024/03/29 13:54:53;;;;;;;0.90;0.80;;;15.80;93.90;;;;;;4957935;28;20667;-65
2024/03/29 13:57:19;;;;;;;1.30;1.20;;;15.80;93.90;;;;;;4947821;28;20747;-66
2024/03/29 13:59:45;;;;;;;0.83;0.80;;;15.70;93.70;;;;;;4944779;28;20429;-65
2024/03/29 14:02:13;;;;;;;1.53;1.17;;;15.50;93.90;;;;;;4961066;28;20214;-65
2024/03/29 14:04:39;;;;;;;0.90;0.80;;;15.30;94.70;;;;;;4949976;28;20960;-65
2024/03/29 14:07:08;;;;;;;1.00;0.90;;;15.40;94.70;;;;;;4949234;28;20428;-65
2024/03/29 14:09:35;;;;;;;1.03;0.93;;;15.60;95.50;;;;;;4968103;28;20449;-66
2024/03/29 14:12:00;;;;;;;1.63;0.90;;;15.80;94.10;;;;;;4961460;28;20439;-66
2024/03/29 14:14:26;;;;;;;1.00;0.90;;;16.50;93.50;;;;;;4947204;28;20429;-63
2024/03/29 14:16:51;;;;;;;1.93;1.23;;;17.20;90.60;;;;;;4964354;28;20230;-65
2024/03/29 14:19:17;;;;;;;1.10;0.90;;;16.70;90.90;;;;;;4955201;28;20198;-66
2024/03/29 14:21:42;;;;;;;1.00;0.90;;;16.20;92.60;;;;;;4962145;28;20202;-65
2024/03/29 14:24:08;;;;;;;1.10;1.00;;;15.90;93.30;;;;;;4966550;28;20662;-65
2024/03/29 14:26:34;;;;;;;0.90;0.80;;;15.90;94.00;;;;;;4949680;28;20194;-66
2024/03/29 14:28:59;;;;;;;1.10;1.00;;;16.00;93.90;;;;;;4943813;28;20770;-65
2024/03/29 14:31:25;;;;;;;0.80;0.80;;;16.10;93.90;;;;;;4966328;28;20209;-65
2024/03/29 14:33:50;;;;;;;1.13;0.93;;;15.90;94.00;;;;;;4966168;28;20195;-66
2024/03/29 14:36:17;;;;;;;0.77;0.73;;;15.70;94.30;;;;;;4947642;28;20582;-64
2024/03/29 14:38:43;;;;;;;0.80;0.70;;;15.60;94.50;;;;;;4985095;28;20228;-65
2024/03/29 14:41:09;;;;;;;1.43;0.83;;;15.40;95.00;;;;;;4948199;28;20907;-67
2024/03/29 14:43:35;;;;;;;0.90;0.80;;;15.30;95.60;;;;;;4965630;28;20938;-64
2024/03/29 14:46:01;;;;;;;0.90;0.80;;;15.10;95.80;;;;;;4963416;28;20210;-67
2024/03/29 14:48:26;;;;;;;0.93;0.83;;;15.10;96.00;;;;;;4967452;28;20445;-65
2024/03/29 14:50:52;;;;;;;1.10;1.00;;;15.00;96.20;;;;;;4961683;28;20199;-65
2024/03/29 14:53:17;;;;;;;0.90;0.80;;;14.90;96.80;;;;;;4962812;28;20194;-65
2024/03/29 14:55:43;;;;;;;6.23;1.00;;;14.90;97.00;;;;;;4956052;28;20684;-66
2024/03/29 14:58:09;;;;;;;1.90;0.97;;;14.90;97.10;;;;;;4961650;28;20184;-65
2024/03/29 15:00:34;;;;;;;3.33;1.40;;;14.80;97.30;;;;;;4954957;28;20819;-65
2024/03/29 15:03:00;;;;;;;1.27;1.17;;;14.60;97.30;;;;;;4952666;28;20266;-68
2024/03/29 15:05:26;;;;;;;2.50;1.33;;;14.50;97.30;;;;;;4957596;28;20186;-66
2024/03/29 15:07:53;;;;;;;1.10;0.90;;;14.40;97.30;;;;;;4941091;28;20183;-66
2024/03/29 15:10:19;;;;;;;0.90;0.80;;;14.30;97.30;;;;;;4955559;28;21078;-66
2024/03/29 15:12:46;;;;;;;1.00;0.90;;;14.20;97.30;;;;;;4961680;28;20429;-66
2024/03/29 15:15:12;;;;;;;0.97;0.87;;;14.10;97.30;;;;;;4956573;28;20947;-66
2024/03/29 15:17:38;;;;;;;0.90;0.80;;;14.10;97.30;;;;;;4964397;28;20945;-67
2024/03/29 15:20:07;;;;;;;1.23;1.13;;;14.20;97.30;;;;;;4957215;28;20447;-67
2024/03/29 15:22:32;;;;;;;0.90;0.80;;;14.20;97.30;;;;;;4955776;28;20190;-66
2024/03/29 15:25:00;;;;;;;1.40;1.13;;;14.20;97.30;;;;;;4944180;28;20565;-67
2024/03/29 15:30:10;;;;;;;1.13;1.03;;;14.20;97.30;;;;;;4958081;28;20470;-67
2024/03/29 15:32:36;;;;;;;1.00;0.90;;;14.20;97.30;;;;;;4941689;28;20709;-67
2024/03/29 15:35:01;;;;;;;1.20;1.10;;;14.20;97.30;;;;;;4957148;28;20719;-66
2024/03/29 15:37:27;;;;;;;0.97;0.87;;;14.10;97.30;;;;;;4945147;28;20458;-66
2024/03/29 15:39:53;;;;;;;1.07;1.00;;;14.20;97.30;;;;;;4949804;28;20269;-67
2024/03/29 15:42:19;;;;;;;1.00;0.90;;;14.20;97.30;;;;;;4971902;28;20210;-67
2024/03/29 15:44:45;;;;;;;1.73;1.63;;;14.20;97.30;;;;;;4957552;28;20262;-66
2024/03/29 15:47:13;;;;;;;2.83;2.63;;;14.10;97.30;;;;;;4954631;28;20525;-67
2024/03/29 15:49:38;;;;;;;0.80;0.80;;;14.20;97.30;;;;;;4972044;28;20199;-67
2024/03/29 15:52:04;;;;;;;1.37;1.37;;;14.10;97.30;;;;;;4959245;28;20755;-68
2024/03/29 15:54:29;;;;;;;1.10;1.00;;;14.10;97.30;;;;;;4948399;28;20642;-67
2024/03/29 15:56:55;;;;;;;1.00;0.90;;;14.10;97.30;;;;;;4958091;28;20229;-67
2024/03/29 15:59:22;;;;;;;1.83;1.20;;;14.10;97.30;;;;;;4957939;28;20571;-67
2024/03/29 16:01:48;;;;;;;1.10;1.00;;;14.20;97.30;;;;;;4958697;28;20223;-67
2024/03/29 16:04:14;;;;;;;1.30;1.20;;;14.20;97.30;;;;;;4961097;28;20915;-67
2024/03/29 16:06:39;;;;;;;0.80;0.70;;;14.20;97.30;;;;;;4938961;28;20558;-68
2024/03/29 16:09:05;;;;;;;0.80;0.80;;;14.30;97.30;;;;;;4962158;28;20203;-67
2024/03/29 16:11:38;;;;;;;0.90;0.80;;;14.40;97.30;;;;;;4961167;28;20206;-67
2024/03/29 16:14:04;;;;;;;2.30;0.90;;;14.40;97.30;;;;;;4939800;29;20180;-68
2024/03/29 16:16:30;;;;;;;1.07;0.97;;;14.40;97.30;;;;;;4959475;28;20496;-67
2024/03/29 16:18:56;;;;;;;0.90;0.90;;;14.50;97.30;;;;;;4960701;28;21007;-67
2024/03/29 16:21:22;;;;;;;1.37;1.20;;;14.50;97.30;;;;;;4959742;28;20501;-67
2024/03/29 16:23:48;;;;;;;1.63;1.00;;;14.50;97.30;;;;;;4939436;28;20579;-67
2024/03/29 16:26:14;;;;;;;2.10;1.10;;;14.50;97.30;;;;;;4962355;28;20497;-67
2024/03/29 16:28:39;;;;;;;0.93;0.80;;;14.50;97.30;;;;;;4945841;28;20186;-67
2024/03/29 16:31:05;;;;;;;1.10;1.00;;;14.50;97.30;;;;;;4961536;28;20441;-67
2024/03/29 16:33:31;;;;;;;1.37;1.00;;;14.50;97.30;;;;;;4947192;28;20183;-67
2024/03/29 16:35:57;;;;;;;1.17;1.00;;;14.40;97.30;;;;;;4943450;28;20205;-67
2024/03/29 16:38:22;;;;;;;0.87;0.77;;;14.40;97.30;;;;;;4945952;28;20742;-67
2024/03/29 16:40:48;;;;;;;1.13;1.03;;;14.30;97.30;;;;;;4956695;28;20451;-68
2024/03/29 16:43:13;;;;;;;1.47;1.00;;;14.30;97.30;;;;;;4967500;28;20200;-68
2024/03/29 16:45:40;;;;;;;2.80;1.63;;;14.30;97.30;;;;;;4947336;28;20186;-67
2024/03/29 16:48:06;;;;;;;1.87;1.47;;;14.30;97.30;;;;;;4959268;28;20189;-67
2024/03/29 16:50:31;;;;;;;0.97;0.87;;;14.20;97.30;;;;;;4945844;28;21014;-67
2024/03/29 16:52:57;;;;;;;0.90;0.80;;;14.20;97.30;;;;;;4938020;29;20241;-67
2024/03/29 16:55:22;;;;;;;1.63;1.53;;;14.20;97.30;;;;;;4963007;28;20655;-68
2024/03/29 16:57:48;;;;;;;1.00;0.90;;;14.20;97.30;;;;;;4949125;28;20183;-68
2024/03/29 17:00:14;;;;;;;1.03;0.93;;;14.20;97.30;;;;;;4961238;28;20253;-67
2024/03/29 17:02:40;;;;;;;1.07;0.97;;;14.20;97.30;;;;;;4946721;28;20226;-67
2024/03/29 17:05:07;;;;;;;0.90;0.80;;;14.20;97.30;;;;;;4947155;28;20501;-68
2024/03/29 17:07:33;;;;;;;1.40;1.37;;;14.20;97.30;;;;;;4945421;28;20565;-68
2024/03/29 17:09:58;;;;;;;6.63;1.87;;;14.10;97.30;;;;;;4959055;28;20473;-67
2024/03/29 17:12:27;;;;;;;1.57;1.30;;;14.10;97.30;;;;;;4957890;28;20439;-68
2024/03/29 17:14:56;;;;;;;2.27;1.10;;;14.00;97.30;;;;;;4957069;28;20202;-68
2024/03/29 17:17:24;;;;;;;1.07;1.07;;;14.00;97.30;;;;;;4944191;28;20418;-68
2024/03/29 17:19:50;;;;;;;1.43;1.33;;;13.90;97.30;;;;;;4957780;28;20512;-68
2024/03/29 17:22:15;;;;;;;2.40;2.00;;;13.90;97.30;;;;;;4955500;28;20865;-68
2024/03/29 17:24:41;;;;;;;0.90;0.80;;;13.80;97.30;;;;;;4955854;28;20230;-68
2024/03/29 17:27:07;;;;;;;1.10;1.00;;;13.80;97.30;;;;;;4942993;29;20214;-68
2024/03/29 17:29:33;;;;;;;1.57;1.23;;;13.80;97.30;;;;;;4956551;28;20666;-67
2024/03/29 17:31:58;;;;;;;3.70;1.30;;;13.70;97.30;;;;;;4937321;29;20297;-68
2024/03/29 17:34:24;;;;;;;5.13;2.27;;;13.70;97.30;;;;;;4961329;28;20272;-67
2024/03/29 17:36:49;;;;;;;3.27;1.83;;;13.70;97.30;;;;;;4966087;28;20183;-67
2024/03/29 17:39:15;;;;;;;4.00;2.37;;;13.60;97.30;;;;;;4942790;28;20248;-68
2024/03/29 17:41:41;;;;;;;3.10;2.27;;;13.60;97.30;;;;;;4963085;28;20671;-67
2024/03/29 17:44:07;;;;;;;1.10;1.00;;;13.60;97.30;;;;;;4969303;28;20280;-68
2024/03/29 17:46:34;;;;;;;1.67;1.57;;;13.60;97.30;;;;;;4956522;28;20461;-67
2024/03/29 17:49:00;;;;;;;2.33;1.60;;;13.50;97.30;;;;;;4946574;28;20806;-68
2024/03/29 17:51:25;;;;;;;4.97;2.20;;;13.50;97.30;;;;;;4945563;28;20844;-68
2024/03/29 17:53:51;;;;;;;3.20;2.73;;;13.50;97.30;;;;;;4939825;28;20454;-68